Time;durP1;ratioP1;P1;durP2;ratioP2;P2;SDS_P1;SDS_P2;PMS_P1;PMS_P2;Temp;Humidity;BMP_temperature;BMP_pressure;BME280_temperature;BME280_humidity;BME280_pressure;Samples;Min_cycle;Max_cycle;Signal;HPM_P1;HPM_P2
2023/03/20 00:00:27;;;;;;;14.70;7.97;;;9.90;99.90;;;;;;5028000;28;20048;-67
2023/03/20 00:02:53;;;;;;;17.08;9.05;;;9.90;99.90;;;;;;5027476;28;20151;-68
2023/03/20 00:05:22;;;;;;;16.67;8.05;;;9.90;99.90;;;;;;5027853;28;20448;-68
2023/03/20 00:07:49;;;;;;;16.58;8.40;;;9.90;99.90;;;;;;5027460;28;20452;-68
2023/03/20 00:10:17;;;;;;;17.63;8.63;;;9.90;99.90;;;;;;5027904;28;20057;-68
2023/03/20 00:12:45;;;;;;;20.13;8.27;;;9.80;99.90;;;;;;5027279;28;20548;-68
2023/03/20 00:15:22;;;;;;;16.15;8.93;;;9.90;99.90;;;;;;5027718;28;20045;-68
2023/03/20 00:17:47;;;;;;;16.75;7.53;;;9.80;99.90;;;;;;5030451;28;20041;-68
2023/03/20 00:20:15;;;;;;;18.75;8.63;;;9.80;99.90;;;;;;5031659;28;20060;-69
2023/03/20 00:22:41;;;;;;;18.58;9.00;;;9.90;99.90;;;;;;5030962;28;20045;-68
2023/03/20 00:25:19;;;;;;;18.80;8.80;;;9.90;99.90;;;;;;5031684;28;20111;-68
2023/03/20 00:27:45;;;;;;;17.08;8.90;;;9.80;99.90;;;;;;5030151;28;20049;-68
2023/03/20 00:30:27;;;;;;;23.73;9.57;;;9.80;99.90;;;;;;5031674;28;20053;-69
2023/03/20 00:32:54;;;;;;;25.10;9.98;;;9.70;99.90;;;;;;5031054;28;20532;-68
2023/03/20 00:35:29;;;;;;;18.50;8.93;;;9.80;99.90;;;;;;5031512;28;20065;-69
2023/03/20 00:37:56;;;;;;;21.85;9.48;;;9.70;99.90;;;;;;5031148;28;20536;-69
2023/03/20 00:40:28;;;;;;;23.25;10.52;;;9.70;99.90;;;;;;5030010;28;20440;-68
2023/03/20 00:43:02;;;;;;;19.25;9.02;;;9.80;99.90;;;;;;5031462;28;20041;-68
2023/03/20 00:45:30;;;;;;;23.38;9.50;;;9.70;99.90;;;;;;5031262;28;20397;-68
2023/03/20 00:47:59;;;;;;;21.10;8.82;;;9.70;99.90;;;;;;5031210;28;20434;-68
2023/03/20 00:50:29;;;;;;;21.42;8.57;;;9.70;99.90;;;;;;5030259;28;20103;-69
2023/03/20 00:52:56;;;;;;;18.58;7.38;;;9.70;99.90;;;;;;5029491;28;20080;-68
2023/03/20 00:55:24;;;;;;;21.77;8.15;;;9.70;99.90;;;;;;5013479;28;20077;-68
2023/03/20 00:57:59;;;;;;;17.00;7.22;;;9.80;99.90;;;;;;5029355;28;20076;-68
2023/03/20 01:00:42;;;;;;;17.05;7.90;;;9.80;99.90;;;;;;5030261;28;20585;-68
2023/03/20 01:03:21;;;;;;;18.27;7.05;;;9.70;99.90;;;;;;5030398;28;20119;-68
2023/03/20 01:05:47;;;;;;;12.93;6.88;;;9.70;99.90;;;;;;5030913;28;20081;-68
2023/03/20 01:08:15;;;;;;;14.10;6.32;;;9.70;99.90;;;;;;5030502;28;20539;-69
2023/03/20 01:10:43;;;;;;;12.63;5.93;;;9.70;99.90;;;;;;5030332;28;20049;-68
2023/03/20 01:13:17;;;;;;;15.05;6.28;;;9.70;99.90;;;;;;5030371;28;20047;-68
2023/03/20 01:15:43;;;;;;;13.85;6.32;;;9.70;99.90;;;;;;5030372;28;20785;-68
2023/03/20 01:18:13;;;;;;;9.85;4.95;;;9.70;99.90;;;;;;5030094;28;20038;-68
2023/03/20 01:20:39;;;;;;;12.88;6.07;;;9.60;99.90;;;;;;5030058;28;20099;-68
2023/03/20 01:23:05;;;;;;;14.55;5.82;;;9.60;99.90;;;;;;5029619;28;20045;-69
2023/03/20 01:25:31;;;;;;;14.10;6.25;;;9.60;99.90;;;;;;5030261;28;20199;-68
2023/03/20 01:27:57;;;;;;;9.65;5.10;;;9.60;99.90;;;;;;5029735;28;20091;-68
2023/03/20 01:30:28;;;;;;;11.93;5.90;;;9.60;99.90;;;;;;5030137;28;20041;-69
2023/03/20 01:32:55;;;;;;;16.58;7.85;;;9.60;99.90;;;;;;5028709;28;20049;-68
2023/03/20 01:35:23;;;;;;;12.82;5.82;;;9.60;99.90;;;;;;5030067;28;20533;-68
2023/03/20 01:37:50;;;;;;;14.25;5.75;;;9.60;99.90;;;;;;5030281;28;20045;-68
2023/03/20 01:40:42;;;;;;;12.95;5.82;;;9.50;99.90;;;;;;5030277;28;20585;-69
2023/03/20 01:43:17;;;;;;;11.15;5.88;;;9.60;99.90;;;;;;5029663;28;20124;-68
2023/03/20 01:45:53;;;;;;;11.80;5.55;;;9.50;99.90;;;;;;5029681;28;20057;-68
2023/03/20 01:48:21;;;;;;;11.68;5.30;;;9.50;99.90;;;;;;5029915;28;20147;-68
2023/03/20 01:50:47;;;;;;;11.18;5.20;;;9.50;99.90;;;;;;5030043;28;20052;-68
2023/03/20 01:53:24;;;;;;;14.18;4.88;;;9.50;99.90;;;;;;5029701;28;20103;-68
2023/03/20 01:55:54;;;;;;;14.20;4.97;;;9.50;99.90;;;;;;5029764;28;20045;-68
2023/03/20 01:58:26;;;;;;;8.88;5.47;;;9.50;99.90;;;;;;5028251;28;20068;-68
2023/03/20 02:00:52;;;;;;;13.75;5.55;;;9.50;99.90;;;;;;5029577;28;20038;-68
2023/03/20 02:03:18;;;;;;;8.55;4.68;;;9.50;99.90;;;;;;5029452;28;20048;-68
2023/03/20 02:05:44;;;;;;;10.35;4.50;;;9.50;99.90;;;;;;5029705;28;20033;-68
2023/03/20 02:08:30;;;;;;;13.25;6.00;;;9.50;99.90;;;;;;5028188;28;20581;-68
2023/03/20 02:10:58;;;;;;;10.55;5.20;;;9.50;99.90;;;;;;5029855;28;20048;-69
2023/03/20 02:13:26;;;;;;;12.68;5.15;;;9.50;99.90;;;;;;5029333;28;20037;-68
2023/03/20 02:16:02;;;;;;;12.07;5.90;;;9.40;99.90;;;;;;5028331;28;20120;-69
2023/03/20 02:18:29;;;;;;;17.55;6.07;;;9.50;99.90;;;;;;5029099;28;20111;-68
2023/03/20 02:21:22;;;;;;;15.98;6.20;;;9.40;99.90;;;;;;5029513;28;20509;-68
2023/03/20 02:24:14;;;;;;;15.35;6.80;;;9.50;99.90;;;;;;5029098;28;20455;-68
2023/03/20 02:27:03;;;;;;;14.10;6.53;;;9.40;99.90;;;;;;5029090;28;20127;-68
2023/03/20 02:29:47;;;;;;;10.80;6.63;;;9.40;99.90;;;;;;5029116;28;20077;-68
2023/03/20 02:32:37;;;;;;;15.80;7.95;;;9.40;99.90;;;;;;5027871;28;20492;-68
2023/03/20 02:35:18;;;;;;;13.52;7.53;;;9.40;99.90;;;;;;5029246;28;20485;-68
2023/03/20 02:37:52;;;;;;;21.30;8.00;;;9.40;99.90;;;;;;5029236;28;20041;-68
2023/03/20 02:40:28;;;;;;;25.55;9.48;;;9.40;99.90;;;;;;5028399;28;20042;-68
2023/03/20 02:43:15;;;;;;;18.83;8.18;;;9.30;99.90;;;;;;5028934;28;20762;-69
2023/03/20 02:45:44;;;;;;;10.27;5.88;;;9.30;99.90;;;;;;5028878;28;20048;-68
2023/03/20 02:48:30;;;;;;;19.58;7.63;;;9.30;99.90;;;;;;5029275;28;20133;-69
2023/03/20 02:51:17;;;;;;;17.02;8.07;;;9.30;99.90;;;;;;5027378;28;20053;-68
2023/03/20 02:54:00;;;;;;;16.98;8.65;;;9.30;99.90;;;;;;5029115;28;20807;-68
2023/03/20 02:56:34;;;;;;;20.67;8.80;;;9.30;99.90;;;;;;5028924;28;20065;-68
2023/03/20 02:59:27;;;;;;;20.23;8.18;;;9.20;99.90;;;;;;5029021;28;20576;-68
2023/03/20 03:02:14;;;;;;;;;;;9.30;99.90;;;;;;5028994;28;20046;-68
2023/03/20 03:04:51;;;;;;;19.73;8.38;;;9.20;99.90;;;;;;5028396;28;19925;-68
2023/03/20 03:07:22;;;;;;;22.13;9.95;;;9.20;99.90;;;;;;5028719;28;20124;-69
2023/03/20 03:10:14;;;;;;;22.67;9.70;;;9.20;99.90;;;;;;5028769;28;20045;-69
2023/03/20 03:12:44;;;;;;;19.37;9.33;;;9.30;99.90;;;;;;5023304;28;20053;-69
2023/03/20 03:15:24;;;;;;;22.15;9.13;;;9.30;99.90;;;;;;5028784;28;20318;-68
2023/03/20 03:17:50;;;;;;;23.67;9.48;;;9.20;99.90;;;;;;5028328;28;20053;-68
2023/03/20 03:20:23;;;;;;;19.70;9.63;;;9.20;99.90;;;;;;5028580;28;20080;-69
2023/03/20 03:22:49;;;;;;;22.55;9.80;;;9.20;99.90;;;;;;5026351;28;20447;-69
2023/03/20 03:25:15;;;;;;;25.35;10.55;;;9.20;99.90;;;;;;5026970;28;20084;-68
2023/03/20 03:27:45;;;;;;;22.13;9.88;;;9.20;99.90;;;;;;5026655;28;20073;-69
2023/03/20 03:30:17;;;;;;;22.15;9.35;;;9.20;99.90;;;;;;5026808;28;20099;-69
2023/03/20 03:33:01;;;;;;;21.98;9.73;;;9.20;99.90;;;;;;5026437;28;20733;-69
2023/03/20 03:35:26;;;;;;;22.63;10.30;;;9.20;99.90;;;;;;5028221;28;20081;-68
2023/03/20 03:38:18;;;;;;;18.00;9.65;;;9.20;99.90;;;;;;5028156;28;20528;-69
2023/03/20 03:40:51;;;;;;;18.08;8.85;;;9.20;99.90;;;;;;5026627;28;20045;-69
2023/03/20 03:43:41;;;;;;;17.35;8.80;;;9.10;99.90;;;;;;5026440;28;20447;-69
2023/03/20 03:46:13;;;;;;;16.95;9.00;;;9.20;99.90;;;;;;5027741;28;20045;-69
2023/03/20 03:48:44;;;;;;;16.02;8.05;;;9.10;99.90;;;;;;5026689;28;20037;-69
2023/03/20 03:51:15;;;;;;;15.25;8.20;;;9.20;99.90;;;;;;5026123;28;20045;-69
2023/03/20 03:53:47;;;;;;;16.13;7.57;;;9.20;99.90;;;;;;5026619;28;20436;-69
2023/03/20 03:56:19;;;;;;;14.80;7.45;;;9.10;99.90;;;;;;5027990;28;20038;-69
2023/03/20 03:58:50;;;;;;;13.70;7.53;;;9.20;99.90;;;;;;5026697;28;20466;-69
2023/03/20 04:01:17;;;;;;;14.00;7.57;;;9.20;99.90;;;;;;5027636;28;20116;-69
2023/03/20 04:03:49;;;;;;;14.98;7.43;;;9.10;99.90;;;;;;5027700;28;20045;-69
2023/03/20 04:06:16;;;;;;;14.80;6.65;;;9.10;99.90;;;;;;5027648;28;20480;-69
2023/03/20 04:08:42;;;;;;;15.98;6.82;;;9.00;99.90;;;;;;5026536;28;20059;-69
2023/03/20 04:11:17;;;;;;;14.05;7.32;;;9.10;99.90;;;;;;5027614;28;20049;-69
2023/03/20 04:13:46;;;;;;;13.55;6.50;;;9.10;99.90;;;;;;5027970;28;20171;-69
2023/03/20 04:16:15;;;;;;;10.48;6.38;;;9.10;99.90;;;;;;5027662;28;20490;-69
2023/03/20 04:18:41;;;;;;;11.32;5.65;;;9.00;99.90;;;;;;5027740;28;20045;-69
2023/03/20 04:21:07;;;;;;;17.05;6.60;;;9.00;99.90;;;;;;5027486;28;20045;-69
2023/03/20 04:23:33;;;;;;;10.13;6.32;;;9.00;99.90;;;;;;5027609;28;20045;-69
2023/03/20 04:25:58;;;;;;;13.23;6.20;;;9.00;99.90;;;;;;5027632;28;20072;-69
2023/03/20 04:28:24;;;;;;;17.60;6.80;;;9.00;99.90;;;;;;5027667;28;20073;-68
2023/03/20 04:30:54;;;;;;;12.02;5.85;;;9.00;99.90;;;;;;5027597;28;20417;-69
2023/03/20 04:33:20;;;;;;;9.18;5.95;;;8.90;99.90;;;;;;5025814;28;20124;-69
2023/03/20 04:35:46;;;;;;;12.20;5.95;;;9.00;99.90;;;;;;5027917;28;20396;-69
2023/03/20 04:38:12;;;;;;;13.68;5.82;;;8.90;99.90;;;;;;5028065;28;20033;-68
2023/03/20 04:40:38;;;;;;;12.30;5.72;;;8.90;99.90;;;;;;5027691;28;20419;-69
2023/03/20 04:43:04;;;;;;;12.07;5.75;;;8.90;99.90;;;;;;5027008;28;20045;-69
2023/03/20 04:45:29;;;;;;;11.73;5.75;;;8.90;99.90;;;;;;5026331;28;20038;-69
2023/03/20 04:47:55;;;;;;;13.95;5.75;;;8.90;99.90;;;;;;5024035;28;21267;-69
2023/03/20 04:50:21;;;;;;;16.73;7.07;;;8.90;99.90;;;;;;5023685;28;20080;-69
2023/03/20 04:52:47;;;;;;;12.80;5.93;;;8.80;99.90;;;;;;5026966;28;20041;-69
2023/03/20 04:55:13;;;;;;;15.68;6.40;;;8.80;99.90;;;;;;5027033;28;20549;-69
2023/03/20 04:57:38;;;;;;;14.20;6.05;;;8.90;99.90;;;;;;5027352;28;20037;-69
2023/03/20 05:00:05;;;;;;;11.35;6.45;;;8.80;99.90;;;;;;5027235;28;20041;-68
2023/03/20 05:02:30;;;;;;;14.30;6.70;;;8.90;99.90;;;;;;5026107;28;20052;-68
2023/03/20 05:04:56;;;;;;;18.00;6.97;;;8.80;99.90;;;;;;5031054;28;20033;-69
2023/03/20 05:07:21;;;;;;;14.10;6.90;;;8.80;99.90;;;;;;5029415;28;20401;-69
2023/03/20 05:09:47;;;;;;;14.70;7.43;;;8.70;99.90;;;;;;5030908;28;20041;-69
2023/03/20 05:12:13;;;;;;;15.63;7.65;;;8.80;99.90;;;;;;5030355;28;20068;-69
2023/03/20 05:14:39;;;;;;;18.02;7.88;;;8.80;99.90;;;;;;5030939;28;20045;-69
2023/03/20 05:17:04;;;;;;;19.05;8.05;;;8.70;99.90;;;;;;5028855;28;20060;-69
2023/03/20 05:19:30;;;;;;;19.27;9.18;;;8.80;99.90;;;;;;5030423;28;20042;-68
2023/03/20 05:21:56;;;;;;;18.52;8.20;;;8.80;99.90;;;;;;5029791;28;20104;-69
2023/03/20 05:24:21;;;;;;;19.40;9.13;;;8.70;99.90;;;;;;5029277;28;20037;-69
2023/03/20 05:26:47;;;;;;;16.40;7.90;;;8.80;99.90;;;;;;5030361;28;20037;-68
2023/03/20 05:29:13;;;;;;;17.58;9.00;;;8.70;99.90;;;;;;5028858;28;20049;-69
2023/03/20 05:31:39;;;;;;;18.85;8.98;;;8.80;99.90;;;;;;5029862;28;20520;-69
2023/03/20 05:34:05;;;;;;;17.23;9.55;;;8.80;99.90;;;;;;5029030;28;20073;-68
2023/03/20 05:36:30;;;;;;;17.52;9.13;;;8.80;99.90;;;;;;5030346;28;20690;-69
2023/03/20 05:38:56;;;;;;;14.38;9.18;;;8.80;99.90;;;;;;5030251;28;20037;-69
2023/03/20 05:41:22;;;;;;;17.08;8.77;;;8.80;99.90;;;;;;5030150;28;20041;-69
2023/03/20 05:43:48;;;;;;;15.90;8.65;;;8.80;99.90;;;;;;5028802;28;20106;-69
2023/03/20 05:46:13;;;;;;;18.70;9.60;;;8.70;99.90;;;;;;5029449;28;20041;-69
2023/03/20 05:48:39;;;;;;;17.17;9.93;;;8.70;99.90;;;;;;5028307;28;20044;-69
2023/03/20 05:51:05;;;;;;;16.58;9.55;;;8.70;99.90;;;;;;5026846;28;20127;-69
2023/03/20 05:53:30;;;;;;;16.58;9.32;;;8.70;99.90;;;;;;5026189;28;20057;-69
2023/03/20 05:55:56;;;;;;;18.67;9.38;;;8.70;99.90;;;;;;5026641;28;20084;-69
2023/03/20 05:58:22;;;;;;;20.08;10.00;;;8.70;99.90;;;;;;5029387;28;20037;-69
2023/03/20 06:00:47;;;;;;;18.63;9.70;;;8.70;99.90;;;;;;5030009;28;20072;-69
2023/03/20 06:03:13;;;;;;;18.17;9.13;;;8.70;99.90;;;;;;5028607;28;20029;-69
2023/03/20 06:05:39;;;;;;;14.43;9.82;;;8.70;99.90;;;;;;5029151;28;20088;-69
2023/03/20 06:08:05;;;;;;;17.55;9.70;;;8.70;99.90;;;;;;5028736;28;20478;-70
2023/03/20 06:10:30;;;;;;;18.17;9.48;;;8.70;99.90;;;;;;5029822;28;20564;-69
2023/03/20 06:12:59;;;;;;;18.33;9.27;;;8.70;99.90;;;;;;5029491;28;20103;-69
2023/03/20 06:15:25;;;;;;;14.93;8.30;;;8.70;99.90;;;;;;5027702;28;20087;-69
2023/03/20 06:17:51;;;;;;;16.50;9.48;;;8.70;99.90;;;;;;5030036;28;20392;-69
2023/03/20 06:20:17;;;;;;;18.85;9.23;;;8.60;99.90;;;;;;5028178;28;20038;-68
2023/03/20 06:22:42;;;;;;;17.42;8.77;;;8.70;99.90;;;;;;5029042;28;20045;-69
2023/03/20 06:25:08;;;;;;;17.90;8.93;;;8.80;99.90;;;;;;5028059;28;20121;-69
2023/03/20 06:27:34;;;;;;;13.77;8.15;;;8.70;99.90;;;;;;5029533;28;20108;-69
2023/03/20 06:30:00;;;;;;;15.20;9.10;;;8.70;99.90;;;;;;5029107;28;20563;-69
2023/03/20 06:32:26;;;;;;;17.23;8.85;;;8.70;99.90;;;;;;5027508;28;20552;-69
2023/03/20 06:34:52;;;;;;;17.80;8.93;;;8.80;99.90;;;;;;5029322;28;20040;-69
2023/03/20 06:37:18;;;;;;;14.55;8.13;;;8.70;99.90;;;;;;5027508;28;20715;-69
2023/03/20 06:39:44;;;;;;;14.50;7.32;;;8.70;99.90;;;;;;5029176;28;20517;-69
2023/03/20 06:42:11;;;;;;;17.88;8.13;;;8.70;99.90;;;;;;5028759;28;20045;-69
2023/03/20 06:44:38;;;;;;;13.75;8.07;;;8.70;99.90;;;;;;5028997;28;20042;-69
2023/03/20 06:47:03;;;;;;;15.68;9.05;;;8.80;99.90;;;;;;5029071;28;20045;-69
2023/03/20 06:49:29;;;;;;;21.25;8.52;;;8.80;99.90;;;;;;5029187;28;20045;-69
2023/03/20 06:51:55;;;;;;;13.50;7.03;;;8.80;99.90;;;;;;5027473;28;20047;-69
2023/03/20 06:54:21;;;;;;;16.70;8.20;;;8.80;99.90;;;;;;5028987;28;20107;-69
2023/03/20 06:56:47;;;;;;;13.82;7.97;;;8.80;99.90;;;;;;5028686;28;20046;-69
2023/03/20 06:59:12;;;;;;;14.98;7.85;;;8.80;99.90;;;;;;5027242;28;20045;-69
2023/03/20 07:01:38;;;;;;;12.93;6.88;;;8.70;99.90;;;;;;5028460;28;20052;-69
2023/03/20 07:04:05;;;;;;;15.60;6.55;;;8.80;99.90;;;;;;5028663;28;20145;-69
2023/03/20 07:06:31;;;;;;;14.13;7.60;;;8.70;99.90;;;;;;5028888;28;20132;-70
2023/03/20 07:08:56;;;;;;;17.45;7.50;;;8.70;99.90;;;;;;5028487;28;20509;-70
2023/03/20 07:11:22;;;;;;;15.23;7.65;;;8.80;99.90;;;;;;5028281;28;20168;-69
2023/03/20 07:13:48;;;;;;;14.55;6.72;;;8.80;99.90;;;;;;5028449;28;20041;-70
2023/03/20 07:16:13;;;;;;;15.13;7.50;;;8.70;99.90;;;;;;5028349;28;20041;-70
2023/03/20 07:18:39;;;;;;;14.05;7.38;;;8.80;99.90;;;;;;5028639;28;20052;-69
2023/03/20 07:21:06;;;;;;;14.43;7.40;;;8.80;99.90;;;;;;5028286;28;20041;-70
2023/03/20 07:23:35;;;;;;;19.05;6.70;;;8.80;99.90;;;;;;5026790;28;20120;-70
2023/03/20 07:26:02;;;;;;;18.60;6.65;;;8.80;99.90;;;;;;5027990;28;20405;-70
2023/03/20 07:28:28;;;;;;;13.10;6.78;;;8.90;99.90;;;;;;5028558;28;20515;-69
2023/03/20 07:30:53;;;;;;;17.15;7.35;;;8.90;99.90;;;;;;5026686;28;20053;-69
2023/03/20 07:33:19;;;;;;;15.10;6.53;;;8.90;99.90;;;;;;5027977;28;20580;-69
2023/03/20 07:35:45;;;;;;;16.77;6.43;;;8.90;99.90;;;;;;5028182;28;20548;-69
2023/03/20 07:38:11;;;;;;;13.60;7.28;;;8.90;99.90;;;;;;5026851;28;20055;-69
2023/03/20 07:40:36;;;;;;;9.15;6.05;;;8.90;99.90;;;;;;5028103;28;20037;-70
2023/03/20 07:43:03;;;;;;;12.50;7.05;;;9.00;99.90;;;;;;5028073;28;20136;-69
2023/03/20 07:45:28;;;;;;;17.98;7.75;;;9.00;99.90;;;;;;5027641;28;20045;-70
2023/03/20 07:47:54;;;;;;;11.50;6.72;;;9.00;99.90;;;;;;5027624;28;20057;-70
2023/03/20 07:50:19;;;;;;;17.02;7.15;;;9.00;99.90;;;;;;5026217;28;20050;-69
2023/03/20 07:52:50;;;;;;;13.98;6.93;;;9.00;99.90;;;;;;5027464;28;20413;-69
2023/03/20 07:55:17;;;;;;;16.80;7.30;;;9.00;99.90;;;;;;5026471;28;20094;-69
2023/03/20 07:57:43;;;;;;;18.60;7.68;;;9.10;99.90;;;;;;5026315;28;20049;-70
2023/03/20 08:00:10;;;;;;;17.48;7.18;;;9.00;99.90;;;;;;5027831;28;20386;-70
2023/03/20 08:02:36;;;;;;;22.40;7.55;;;9.10;99.90;;;;;;5020523;28;20037;-70
2023/03/20 08:05:01;;;;;;;25.60;10.10;;;9.10;99.90;;;;;;5028829;28;20040;-69
2023/03/20 08:07:28;;;;;;;19.35;8.55;;;9.10;99.90;;;;;;5026760;28;20092;-68
2023/03/20 08:09:54;;;;;;;14.43;7.18;;;9.10;99.90;;;;;;5027577;28;20049;-70
2023/03/20 08:12:20;;;;;;;16.30;7.82;;;9.10;99.90;;;;;;5021231;28;20465;-69
2023/03/20 08:14:46;;;;;;;18.15;8.13;;;9.10;99.90;;;;;;5007985;28;20049;-70
2023/03/20 08:17:12;;;;;;;13.23;7.25;;;9.20;99.90;;;;;;5008238;28;20042;-69
2023/03/20 08:19:38;;;;;;;18.88;8.65;;;9.20;99.90;;;;;;5008083;28;20443;-70
2023/03/20 08:22:04;;;;;;;15.75;8.38;;;9.20;99.90;;;;;;5006538;28;20193;-69
2023/03/20 08:24:30;;;;;;;16.08;8.30;;;9.30;99.90;;;;;;5008002;28;20091;-70
2023/03/20 08:26:56;;;;;;;18.08;8.43;;;9.30;99.90;;;;;;5009706;28;20045;-70
2023/03/20 08:29:22;;;;;;;18.95;9.02;;;9.40;99.90;;;;;;5009715;28;20038;-69
2023/03/20 08:31:48;;;;;;;25.17;9.02;;;9.40;99.90;;;;;;5008475;28;20208;-69
2023/03/20 08:34:14;;;;;;;15.32;8.40;;;9.40;99.90;;;;;;5007170;28;20125;-69
2023/03/20 08:36:39;;;;;;;18.50;7.72;;;9.40;99.90;;;;;;5008550;28;20720;-70
2023/03/20 08:39:05;;;;;;;21.63;8.65;;;9.40;99.90;;;;;;5011028;28;20041;-69
2023/03/20 08:41:32;;;;;;;20.67;8.55;;;9.50;99.90;;;;;;5009906;28;20135;-70
2023/03/20 08:43:58;;;;;;;15.25;7.55;;;9.50;99.90;;;;;;5010190;28;20054;-69
2023/03/20 08:46:24;;;;;;;20.67;9.23;;;9.60;99.90;;;;;;5011968;28;20422;-71
2023/03/20 08:48:50;;;;;;;18.88;9.27;;;9.60;99.90;;;;;;5010368;28;20135;-69
2023/03/20 08:51:16;;;;;;;20.60;9.13;;;9.70;99.90;;;;;;5013758;28;20069;-69
2023/03/20 08:53:41;;;;;;;17.33;8.93;;;9.70;99.90;;;;;;5030374;28;20134;-69
2023/03/20 08:56:08;;;;;;;19.63;8.55;;;9.70;99.90;;;;;;5029538;28;20042;-69
2023/03/20 08:58:33;;;;;;;19.55;9.90;;;9.70;99.90;;;;;;5030178;28;20045;-69
2023/03/20 09:01:07;;;;;;;22.35;8.48;;;9.80;99.90;;;;;;5029450;28;20037;-69
2023/03/20 09:03:34;;;;;;;14.90;8.15;;;9.80;99.90;;;;;;5024384;28;20069;-69
2023/03/20 09:05:59;;;;;;;16.67;8.95;;;9.80;99.90;;;;;;5030208;28;20042;-69
2023/03/20 09:08:25;;;;;;;14.90;7.68;;;9.80;99.90;;;;;;5030583;28;20048;-69
2023/03/20 09:10:51;;;;;;;17.85;9.43;;;9.90;99.90;;;;;;5029202;28;20106;-69
2023/03/20 09:13:17;;;;;;;18.38;9.32;;;9.90;99.90;;;;;;5028936;28;20045;-69
2023/03/20 09:15:42;;;;;;;16.08;8.05;;;10.00;99.90;;;;;;5030428;28;20045;-69
2023/03/20 09:18:08;;;;;;;15.65;8.18;;;10.00;99.90;;;;;;5028882;28;20045;-70
2023/03/20 09:20:34;;;;;;;16.45;8.00;;;10.00;99.90;;;;;;5029211;28;20053;-69
2023/03/20 09:23:00;;;;;;;15.00;8.05;;;10.00;99.90;;;;;;5027632;28;20044;-69
2023/03/20 09:25:26;;;;;;;21.80;8.55;;;10.00;99.90;;;;;;5029967;28;20045;-69
2023/03/20 09:27:54;;;;;;;17.30;7.57;;;10.00;99.90;;;;;;5030238;28;20041;-69
2023/03/20 09:30:21;;;;;;;15.23;7.78;;;10.10;99.90;;;;;;5024756;28;20052;-71
2023/03/20 09:32:48;;;;;;;20.40;8.77;;;10.10;99.90;;;;;;5029864;28;20044;-69
2023/03/20 09:35:14;;;;;;;17.67;8.40;;;10.20;99.90;;;;;;5030140;28;20052;-68
2023/03/20 09:37:39;;;;;;;16.77;8.95;;;10.10;99.90;;;;;;5028934;28;20045;-68
2023/03/20 09:40:06;;;;;;;15.95;8.38;;;10.20;99.90;;;;;;5030301;28;20044;-69
2023/03/20 09:42:47;;;;;;;14.75;7.50;;;10.20;99.90;;;;;;5029697;28;20489;-70
2023/03/20 09:45:38;;;;;;;15.27;7.88;;;10.30;99.90;;;;;;5030327;28;20136;-70
2023/03/20 09:48:25;;;;;;;13.32;7.20;;;10.30;99.90;;;;;;5022090;28;20037;-70
2023/03/20 09:50:56;;;;;;;14.70;8.68;;;10.40;99.90;;;;;;5028323;28;20128;-70
2023/03/20 09:53:41;;;;;;;11.48;6.55;;;10.40;99.90;;;;;;5030150;28;20049;-67
2023/03/20 09:56:14;;;;;;;22.45;7.68;;;10.50;99.90;;;;;;5030013;28;20120;-70
2023/03/20 09:58:41;;;;;;;14.48;7.20;;;10.60;99.90;;;;;;5028291;28;20045;-70
2023/03/20 10:01:12;;;;;;;13.57;6.90;;;10.70;99.90;;;;;;5028770;28;20042;-74
2023/03/20 10:03:55;;;;;;;14.63;8.00;;;10.70;99.90;;;;;;5024377;28;20045;-70
2023/03/20 10:06:22;;;;;;;15.25;7.07;;;10.70;99.90;;;;;;5027625;28;20102;-70
2023/03/20 10:08:48;;;;;;;14.80;7.25;;;10.70;99.90;;;;;;5027824;28;20034;-70
2023/03/20 10:11:40;;;;;;;11.85;6.57;;;10.70;99.90;;;;;;5029610;28;20794;-70
2023/03/20 10:14:17;;;;;;;17.55;7.18;;;10.70;99.90;;;;;;5028320;28;20048;-70
2023/03/20 10:16:50;;;;;;;14.13;6.28;;;10.70;99.90;;;;;;5029466;28;20056;-70
2023/03/20 10:19:23;;;;;;;12.35;6.13;;;10.80;99.90;;;;;;5029747;28;20041;-70
2023/03/20 10:21:56;;;;;;;12.57;7.43;;;10.80;99.90;;;;;;5029426;28;20042;-70
2023/03/20 10:24:43;;;;;;;13.07;6.20;;;10.80;99.90;;;;;;5029839;28;20037;-69
2023/03/20 10:27:27;;;;;;;11.63;5.93;;;10.90;99.90;;;;;;5029790;28;20045;-70
2023/03/20 10:30:02;;;;;;;14.95;6.78;;;10.90;99.90;;;;;;5029442;28;20124;-70
2023/03/20 10:32:31;;;;;;;15.23;6.38;;;10.80;99.90;;;;;;5029502;28;20106;-69
2023/03/20 10:35:28;;;;;;;15.70;6.95;;;10.90;99.90;;;;;;5029588;28;20038;-70
2023/03/20 10:38:05;;;;;;;15.32;6.72;;;10.90;99.90;;;;;;4987089;28;20058;-70
2023/03/20 10:40:40;;;;;;;13.80;7.60;;;10.80;99.90;;;;;;4987114;28;20056;-70
2023/03/20 10:43:15;;;;;;;15.35;6.63;;;10.80;99.90;;;;;;4986579;28;20734;-70
2023/03/20 10:45:57;;;;;;;15.27;7.40;;;10.80;99.90;;;;;;4987055;28;20046;-70
2023/03/20 10:48:44;;;;;;;16.57;7.13;;;10.80;99.90;;;;;;4986987;28;20764;-70
2023/03/20 10:51:19;;;;;;;16.77;7.63;;;10.80;99.90;;;;;;4986491;28;20289;-70
2023/03/20 10:53:57;;;;;;;15.23;7.70;;;10.70;99.90;;;;;;4970886;28;20363;-70
2023/03/20 10:56:31;;;;;;;14.98;7.40;;;10.70;99.90;;;;;;4987042;28;20065;-69
2023/03/20 10:59:25;;;;;;;17.90;7.45;;;10.70;99.90;;;;;;4987008;28;20128;-70
2023/03/20 11:01:51;;;;;;;15.68;7.47;;;10.70;99.90;;;;;;4958427;28;20059;-70
2023/03/20 11:04:16;;;;;;;18.75;8.10;;;10.60;99.90;;;;;;4970132;28;20041;-70
2023/03/20 11:06:51;;;;;;;20.90;7.57;;;10.60;99.90;;;;;;4974836;28;20497;-70
2023/03/20 11:09:20;;;;;;;13.50;6.45;;;10.60;99.90;;;;;;4980651;28;20089;-70
2023/03/20 11:11:47;;;;;;;13.40;5.97;;;10.50;99.90;;;;;;4981773;28;20613;-70
2023/03/20 11:14:19;;;;;;;9.48;4.53;;;10.50;99.90;;;;;;4992089;28;20089;-70
2023/03/20 11:16:50;;;;;;;10.63;5.17;;;10.50;99.90;;;;;;5028422;28;20120;-70
2023/03/20 11:19:20;;;;;;;14.93;5.80;;;10.50;99.90;;;;;;5028499;28;20113;-70
2023/03/20 11:21:51;;;;;;;15.30;5.65;;;10.50;99.90;;;;;;5027918;28;20041;-70
2023/03/20 11:24:36;;;;;;;9.18;5.13;;;10.50;99.90;;;;;;5028351;28;20065;-70
2023/03/20 11:27:16;;;;;;;11.45;5.30;;;10.60;99.90;;;;;;5028461;28;20100;-70
2023/03/20 11:29:47;;;;;;;7.93;4.68;;;10.60;99.90;;;;;;5027578;28;20539;-75
2023/03/20 11:32:32;;;;;;;13.52;5.78;;;10.70;99.90;;;;;;5025762;28;20049;-73
2023/03/20 11:35:29;;;;;;;12.35;5.95;;;10.70;99.90;;;;;;5027953;28;20052;-73
2023/03/20 11:38:19;;;;;;;8.95;4.72;;;10.70;99.90;;;;;;5028026;28;20045;-70
2023/03/20 11:40:47;;;;;;;11.50;6.40;;;10.70;99.90;;;;;;5028026;28;20044;-69
2023/03/20 11:43:24;;;;;;;8.65;5.40;;;10.70;99.90;;;;;;5026205;28;20582;-70
2023/03/20 11:45:55;;;;;;;12.93;5.43;;;10.60;99.90;;;;;;5028078;28;20080;-69
2023/03/20 11:48:35;;;;;;;17.45;5.20;;;10.60;99.90;;;;;;5026772;28;20033;-70
2023/03/20 11:51:07;;;;;;;8.18;5.40;;;10.60;99.90;;;;;;5019016;28;20459;-69
2023/03/20 11:53:39;;;;;;;9.25;4.95;;;10.50;99.90;;;;;;5025761;28;20034;-70
2023/03/20 11:56:12;;;;;;;14.00;5.40;;;10.50;99.90;;;;;;5022226;28;20073;-69
2023/03/20 11:58:53;;;;;;;11.13;5.68;;;10.40;99.90;;;;;;5016467;28;20091;-70
2023/03/20 12:01:20;;;;;;;10.13;6.40;;;10.40;99.90;;;;;;5019309;28;20099;-69
2023/03/20 12:04:02;;;;;;;11.70;5.88;;;10.30;99.90;;;;;;5018559;28;20095;-69
2023/03/20 12:06:42;;;;;;;14.35;6.32;;;10.30;99.90;;;;;;5018536;28;20488;-74
2023/03/20 12:09:39;;;;;;;10.88;5.80;;;10.30;99.90;;;;;;5000741;28;20045;-73
2023/03/20 12:12:12;;;;;;;12.27;6.22;;;10.30;99.90;;;;;;5024343;28;20101;-70
2023/03/20 12:14:45;;;;;;;13.45;6.43;;;10.30;99.90;;;;;;5027638;28;20116;-70
2023/03/20 12:17:36;;;;;;;15.82;5.97;;;10.30;99.90;;;;;;5028713;28;20041;-70
2023/03/20 12:20:26;;;;;;;14.82;7.40;;;10.30;99.90;;;;;;5023819;28;20087;-69
2023/03/20 12:23:12;;;;;;;12.98;6.20;;;10.40;99.90;;;;;;5023358;28;20052;-70
2023/03/20 12:25:51;;;;;;;13.48;5.40;;;10.40;99.90;;;;;;5028768;28;20041;-69
2023/03/20 12:29:03;;;;;;;9.73;4.55;;;10.50;99.90;;;;;;5030236;28;20045;-70
2023/03/20 12:31:44;;;;;;;8.75;4.70;;;10.40;99.90;;;;;;5022811;28;20057;-71
2023/03/20 12:34:19;;;;;;;9.38;4.25;;;10.40;99.90;;;;;;5029004;28;20037;-68
2023/03/20 12:36:47;;;;;;;8.40;4.20;;;10.40;99.90;;;;;;5024246;28;20109;-69
2023/03/20 12:39:23;;;;;;;7.40;4.13;;;10.30;99.90;;;;;;5026719;28;20073;-72
2023/03/20 12:42:05;;;;;;;11.88;4.90;;;10.40;99.90;;;;;;5025796;28;20425;-71
2023/03/20 12:44:43;;;;;;;8.50;4.43;;;10.40;99.90;;;;;;5030920;28;20041;-70
2023/03/20 12:47:38;;;;;;;8.77;3.75;;;10.40;99.90;;;;;;5019369;28;20045;-70
2023/03/20 12:50:31;;;;;;;9.88;3.90;;;10.50;99.90;;;;;;5027376;28;20076;-71
2023/03/20 12:53:22;;;;;;;12.52;4.05;;;10.50;99.90;;;;;;5030405;28;20516;-72
2023/03/20 12:55:58;;;;;;;8.45;3.42;;;10.40;99.90;;;;;;5031607;28;20049;-73
2023/03/20 12:58:42;;;;;;;8.38;3.92;;;10.50;99.90;;;;;;5013422;28;20050;-73
2023/03/20 13:01:11;;;;;;;7.68;4.75;;;10.50;99.90;;;;;;5030835;28;20042;-72
2023/03/20 13:03:58;;;;;;;6.70;3.63;;;10.50;99.90;;;;;;5031175;28;20084;-72
2023/03/20 13:06:23;;;;;;;10.48;3.90;;;10.50;99.90;;;;;;5031557;28;20077;-71